Terminal Aerodrome Forecast
Issued by NWS Flagstaff, AZ

Home | Current Version | Previous Version | Text Only | Print | Product List | Glossary On
Versions: 1 2 3 4 5 6 7 8 9 10 11 12
612
FTUS45 KFGZ 131720
TAFINW
TAF
KINW 131720Z 1318/1418 VRB04KT P6SM SKC
     FM132000 32006KT P6SM FEW250
     FM140100 27004KT P6SM FEW250=

USA.gov is the U.S. government's official web portal to all federal, state and local government web resources and services.